createdAt,value
2022-08-16T00:00:04.995Z,23.57
2022-08-16T00:00:59.525Z,23.53
2022-08-16T00:01:59.964Z,23.54
2022-08-16T00:02:59.175Z,23.48
2022-08-16T00:03:59.289Z,23.48
2022-08-16T00:04:59.921Z,23.46
2022-08-16T00:06:00.398Z,23.43
2022-08-16T00:07:00.306Z,23.46
2022-08-16T00:08:00.297Z,23.48
2022-08-16T00:08:58.426Z,23.43
2022-08-16T00:09:58.705Z,23.43
2022-08-16T00:11:00.228Z,23.39
2022-08-16T00:11:58.772Z,23.38
2022-08-16T00:12:58.880Z,23.31
2022-08-16T00:14:00.138Z,23.32
2022-08-16T00:14:58.381Z,23.27
2022-08-16T00:15:58.369Z,23.22
2022-08-16T00:17:16.070Z,23.22
2022-08-16T00:18:00.127Z,23.22
2022-08-16T00:19:00.451Z,23.20
2022-08-16T00:19:58.330Z,23.20
2022-08-16T00:20:58.319Z,23.20
2022-08-16T00:22:03.097Z,23.22
2022-08-16T00:23:00.082Z,23.19
2022-08-16T00:23:58.263Z,23.20
2022-08-16T00:24:59.059Z,23.22
2022-08-16T00:26:33.605Z,23.25
2022-08-16T00:27:00.974Z,23.23
2022-08-16T00:28:00.962Z,23.17
2022-08-16T00:28:58.215Z,23.13
2022-08-16T00:30:08.700Z,23.10
2022-08-16T00:31:03.494Z,23.07
2022-08-16T00:32:05.710Z,23.05
2022-08-16T00:32:59.183Z,23.09
2022-08-16T00:33:59.704Z,23.13
2022-08-16T00:35:00.744Z,23.13
2022-08-16T00:35:58.924Z,23.13
2022-08-16T00:36:58.137Z,23.13
2022-08-16T00:37:59.439Z,23.13
2022-08-16T00:38:58.896Z,23.09
2022-08-16T00:40:00.855Z,23.07
2022-08-16T00:40:58.126Z,23.02
2022-08-16T00:41:58.866Z,23.04
2022-08-16T00:42:58.856Z,23.07
2022-08-16T00:44:00.026Z,23.04
2022-08-16T00:45:00.757Z,23.05
2022-08-16T00:46:32.875Z,23.12
2022-08-16T00:47:02.397Z,23.13
2022-08-16T00:47:59.028Z,23.13
2022-08-16T00:48:59.637Z,23.19
2022-08-16T00:49:57.993Z,23.28
2022-08-16T00:50:58.219Z,23.33
2022-08-16T00:51:57.963Z,23.32
2022-08-16T00:52:58.221Z,23.33
2022-08-16T00:53:58.743Z,23.32
2022-08-16T00:55:00.570Z,23.32
2022-08-16T00:55:57.955Z,23.32
2022-08-16T00:56:59.941Z,23.20
2022-08-16T00:57:59.794Z,23.20
2022-08-16T00:58:57.881Z,23.22
2022-08-16T00:59:59.453Z,23.23
2022-08-16T01:00:58.172Z,23.23
2022-08-16T01:01:59.642Z,23.25
2022-08-16T01:02:57.850Z,23.31
2022-08-16T01:03:57.832Z,23.20
2022-08-16T01:05:10.759Z,23.16
2022-08-16T01:06:40.056Z,23.13
2022-08-16T01:07:02.046Z,23.16
2022-08-16T01:07:59.628Z,23.19
2022-08-16T01:09:00.144Z,23.20
2022-08-16T01:09:57.754Z,23.19
2022-08-16T01:11:00.058Z,23.25
2022-08-16T01:11:57.747Z,23.27
2022-08-16T01:12:57.725Z,23.28
2022-08-16T01:13:57.758Z,23.31
2022-08-16T01:15:00.368Z,23.31
2022-08-16T01:16:00.378Z,23.33
2022-08-16T01:16:57.696Z,23.35
2022-08-16T01:17:57.697Z,23.36
2022-08-16T01:18:57.657Z,23.35
2022-08-16T01:20:00.727Z,23.35
2022-08-16T01:20:59.348Z,23.35
2022-08-16T01:22:48.619Z,23.33
2022-08-16T01:23:00.310Z,23.23
2022-08-16T01:24:01.358Z,23.22
2022-08-16T01:24:58.398Z,23.20
2022-08-16T01:26:00.088Z,23.19
2022-08-16T01:27:03.662Z,23.15
2022-08-16T01:27:57.580Z,23.09
2022-08-16T01:28:57.561Z,23.07
2022-08-16T01:29:59.564Z,23.10
2022-08-16T01:30:57.539Z,23.10
2022-08-16T01:31:57.560Z,23.12
2022-08-16T01:33:02.261Z,23.13
2022-08-16T01:33:59.312Z,23.05
2022-08-16T01:34:57.502Z,23.04
2022-08-16T01:35:57.484Z,23.00
2022-08-16T01:36:58.431Z,22.98
2022-08-16T01:38:00.182Z,22.97
2022-08-16T01:38:57.601Z,22.95
2022-08-16T01:39:59.141Z,22.97
2022-08-16T01:40:57.424Z,22.95
2022-08-16T01:41:57.461Z,22.97
2022-08-16T01:43:02.367Z,23.01
2022-08-16T01:44:00.909Z,22.95
2022-08-16T01:44:57.604Z,22.94
2022-08-16T01:46:00.025Z,22.92
2022-08-16T01:46:58.374Z,22.94
2022-08-16T01:47:57.355Z,22.91
2022-08-16T01:48:59.989Z,22.90
2022-08-16T01:50:42.898Z,22.82
2022-08-16T01:51:09.100Z,22.73
2022-08-16T01:51:58.327Z,22.73
2022-08-16T01:52:57.286Z,22.75
2022-08-16T01:53:59.027Z,22.75
2022-08-16T01:54:58.078Z,22.75
2022-08-16T01:55:58.961Z,22.80
2022-08-16T01:56:59.938Z,22.77
2022-08-16T01:57:59.588Z,22.72
2022-08-16T01:58:58.029Z,22.65
2022-08-16T01:59:57.244Z,22.64
2022-08-16T02:00:57.208Z,22.68
2022-08-16T02:02:00.325Z,22.67
2022-08-16T02:02:57.190Z,22.67
2022-08-16T02:03:58.739Z,22.67
2022-08-16T02:04:59.970Z,22.65
2022-08-16T02:05:58.121Z,22.68
2022-08-16T02:06:57.937Z,22.64
2022-08-16T02:07:57.151Z,22.60
2022-08-16T02:08:57.114Z,22.60
2022-08-16T02:09:59.503Z,22.60
2022-08-16T02:10:57.125Z,22.60
2022-08-16T02:11:57.092Z,22.49
2022-08-16T02:13:00.732Z,22.47
2022-08-16T02:13:57.085Z,22.46
2022-08-16T02:14:57.053Z,22.46
2022-08-16T02:15:58.703Z,22.47
2022-08-16T02:16:57.043Z,22.49
2022-08-16T02:18:01.293Z,22.45
2022-08-16T02:18:57.004Z,22.37
2022-08-16T02:19:58.865Z,22.39
2022-08-16T02:20:56.994Z,22.36
2022-08-16T02:22:09.053Z,22.35
2022-08-16T02:23:05.752Z,22.33
2022-08-16T02:23:56.975Z,22.30
2022-08-16T02:24:58.497Z,22.25
2022-08-16T02:25:56.926Z,22.24
2022-08-16T02:26:56.955Z,22.21
2022-08-16T02:27:56.927Z,22.21
2022-08-16T02:28:56.926Z,22.25
2022-08-16T02:30:05.585Z,22.24
2022-08-16T02:30:57.877Z,22.25
2022-08-16T02:32:03.765Z,22.20
2022-08-16T02:33:00.185Z,22.20
2022-08-16T02:33:57.901Z,22.18
2022-08-16T02:34:57.148Z,22.15
2022-08-16T02:35:59.956Z,22.15
2022-08-16T02:36:56.829Z,22.15
2022-08-16T02:37:56.821Z,22.14
2022-08-16T02:39:06.061Z,22.17
2022-08-16T02:40:00.844Z,22.14
2022-08-16T02:40:59.124Z,22.12
2022-08-16T02:41:57.569Z,22.09
2022-08-16T02:43:06.181Z,22.09
2022-08-16T02:43:56.741Z,22.09
2022-08-16T02:44:56.733Z,22.09
2022-08-16T02:45:56.750Z,22.05
2022-08-16T02:46:59.372Z,22.03
2022-08-16T02:48:00.965Z,22.00
2022-08-16T02:48:57.677Z,21.99
2022-08-16T02:50:01.421Z,21.99
2022-08-16T02:51:06.459Z,21.94
2022-08-16T02:51:57.660Z,21.94
2022-08-16T02:52:57.223Z,21.90
2022-08-16T02:53:59.030Z,21.88
2022-08-16T02:54:57.423Z,21.83
2022-08-16T02:55:56.595Z,21.84
2022-08-16T02:56:57.404Z,21.80
2022-08-16T02:57:56.607Z,21.80
2022-08-16T02:58:56.594Z,21.80
2022-08-16T02:59:56.566Z,21.79
2022-08-16T03:00:59.300Z,21.77
2022-08-16T03:01:59.227Z,21.75
2022-08-16T03:02:56.539Z,21.71
2022-08-16T03:04:39.792Z,21.72
2022-08-16T03:05:00.305Z,21.71
2022-08-16T03:05:56.505Z,21.71
2022-08-16T03:06:57.351Z,21.72
2022-08-16T03:07:56.499Z,21.71
2022-08-16T03:09:00.088Z,21.67
2022-08-16T03:10:00.610Z,21.64
2022-08-16T03:10:59.220Z,21.67
2022-08-16T03:11:56.459Z,21.64
2022-08-16T03:12:56.841Z,21.62
2022-08-16T03:13:56.787Z,21.65
2022-08-16T03:14:56.423Z,21.67
2022-08-16T03:15:56.400Z,21.67
2022-08-16T03:16:58.700Z,21.64
2022-08-16T03:17:56.409Z,21.61
2022-08-16T03:18:56.370Z,21.64
2022-08-16T03:20:00.205Z,21.61
2022-08-16T03:20:57.331Z,21.59
2022-08-16T03:21:56.352Z,21.53
2022-08-16T03:22:56.554Z,21.52
2022-08-16T03:23:56.296Z,21.42
2022-08-16T03:24:57.553Z,21.44
2022-08-16T03:25:56.302Z,21.40
2022-08-16T03:26:58.068Z,21.34
2022-08-16T03:27:56.283Z,21.29
2022-08-16T03:28:56.254Z,21.29
2022-08-16T03:29:59.993Z,21.29
2022-08-16T03:30:56.225Z,21.27
2022-08-16T03:31:56.226Z,21.24
2022-08-16T03:32:56.234Z,21.25
2022-08-16T03:33:56.195Z,21.24
2022-08-16T03:34:56.176Z,21.24
2022-08-16T03:35:57.058Z,21.22
2022-08-16T03:36:56.975Z,21.17
2022-08-16T03:38:02.519Z,21.12
2022-08-16T03:38:57.953Z,21.04
2022-08-16T03:39:56.903Z,20.98
2022-08-16T03:40:57.126Z,20.91
2022-08-16T03:42:00.049Z,20.92
2022-08-16T03:43:18.647Z,20.92
2022-08-16T03:43:57.040Z,20.97
2022-08-16T03:45:03.841Z,21.01
2022-08-16T03:45:57.088Z,21.01
2022-08-16T03:46:58.232Z,21.03
2022-08-16T03:47:58.574Z,21.04
2022-08-16T03:48:57.738Z,21.03
2022-08-16T03:49:57.912Z,21.01
2022-08-16T03:50:59.906Z,21.03
2022-08-16T03:51:57.750Z,20.98
2022-08-16T03:53:01.350Z,21.01
2022-08-16T03:54:01.026Z,20.98
2022-08-16T03:54:58.115Z,20.97
2022-08-16T03:55:57.640Z,20.92
2022-08-16T03:56:58.612Z,20.89
2022-08-16T03:57:55.909Z,20.89
2022-08-16T03:58:55.882Z,20.89
2022-08-16T03:59:57.552Z,20.89
2022-08-16T04:00:56.777Z,20.88
2022-08-16T04:01:55.852Z,20.87
2022-08-16T04:02:57.472Z,20.87
2022-08-16T04:03:55.825Z,20.88
2022-08-16T04:04:56.053Z,20.89
2022-08-16T04:05:55.784Z,20.87
2022-08-16T04:06:55.792Z,20.88
2022-08-16T04:07:55.786Z,20.88
2022-08-16T04:08:55.783Z,20.88
2022-08-16T04:09:56.544Z,20.87
2022-08-16T04:10:58.024Z,20.84
2022-08-16T04:11:55.745Z,20.80
2022-08-16T04:12:59.445Z,20.82
2022-08-16T04:14:00.812Z,20.82
2022-08-16T04:14:56.694Z,20.82
2022-08-16T04:15:55.676Z,20.77
2022-08-16T04:16:55.677Z,20.79
2022-08-16T04:17:55.689Z,20.79
2022-08-16T04:19:01.960Z,20.80
2022-08-16T04:19:58.088Z,20.79
2022-08-16T04:20:56.451Z,20.82
2022-08-16T04:21:56.819Z,20.84
2022-08-16T04:22:55.627Z,20.85
2022-08-16T04:23:55.599Z,20.88
2022-08-16T04:24:55.635Z,20.87
2022-08-16T04:25:55.587Z,20.87
2022-08-16T04:26:58.298Z,20.82
2022-08-16T04:27:56.036Z,20.84
2022-08-16T04:29:16.994Z,20.84
2022-08-16T04:30:02.784Z,20.85
2022-08-16T04:30:56.541Z,20.87
2022-08-16T04:31:58.064Z,20.88
2022-08-16T04:32:56.383Z,20.87
2022-08-16T04:33:55.503Z,20.87
2022-08-16T04:34:55.470Z,20.82
2022-08-16T04:35:55.494Z,20.82
2022-08-16T04:36:56.742Z,20.80
2022-08-16T04:37:58.102Z,20.79
2022-08-16T04:38:55.461Z,20.79
2022-08-16T04:39:57.344Z,20.80
2022-08-16T04:40:55.422Z,20.76
2022-08-16T04:41:56.569Z,20.79
2022-08-16T04:42:55.426Z,20.82
2022-08-16T04:43:56.193Z,20.82
2022-08-16T04:44:55.905Z,20.82
2022-08-16T04:46:00.148Z,20.82
2022-08-16T04:47:02.366Z,20.82
2022-08-16T04:47:56.041Z,20.84
2022-08-16T04:48:55.372Z,20.87
2022-08-16T04:49:55.319Z,20.85
2022-08-16T04:50:55.318Z,20.85
2022-08-16T04:51:55.472Z,20.85
2022-08-16T04:52:55.742Z,20.87
2022-08-16T04:53:56.083Z,20.87
2022-08-16T04:54:55.283Z,20.87
2022-08-16T04:55:55.247Z,20.85
2022-08-16T04:56:56.047Z,20.87
2022-08-16T04:57:55.247Z,20.88
2022-08-16T04:58:57.992Z,20.89
2022-08-16T04:59:55.218Z,20.92
2022-08-16T05:00:55.218Z,20.94
2022-08-16T05:01:57.758Z,20.97
2022-08-16T05:02:58.819Z,20.95
2022-08-16T05:04:00.434Z,20.95
2022-08-16T05:04:56.148Z,20.92
2022-08-16T05:05:58.903Z,20.91
2022-08-16T05:06:55.139Z,20.84
2022-08-16T05:08:00.215Z,20.77
2022-08-16T05:08:56.628Z,20.77
2022-08-16T05:09:55.100Z,20.77
2022-08-16T05:10:59.862Z,20.79
2022-08-16T05:11:57.355Z,20.88
2022-08-16T05:12:55.081Z,20.82
2022-08-16T05:13:55.065Z,20.79
2022-08-16T05:15:02.431Z,20.82
2022-08-16T05:15:56.057Z,20.82
2022-08-16T05:16:55.039Z,20.84
2022-08-16T05:17:58.927Z,20.88
2022-08-16T05:18:58.641Z,20.87
2022-08-16T05:19:58.382Z,20.87
2022-08-16T05:21:09.382Z,20.92
2022-08-16T05:23:07.910Z,21.01
2022-08-16T05:24:09.401Z,21.06
2022-08-16T05:25:41.299Z,21.13
2022-08-16T05:41:06.233Z,21.25
2022-08-16T05:42:06.273Z,21.22
2022-08-16T05:43:32.257Z,21.22
2022-08-16T05:44:23.102Z,21.25
2022-08-16T05:56:52.217Z,21.59
2022-08-16T05:59:59.610Z,21.69
2022-08-16T06:00:55.751Z,21.71
2022-08-16T06:01:58.926Z,21.67
2022-08-16T06:03:04.042Z,21.69
2022-08-16T06:03:53.660Z,21.65
2022-08-16T06:04:54.411Z,21.62
2022-08-16T06:05:53.610Z,21.65
2022-08-16T06:06:55.767Z,21.65
2022-08-16T06:07:59.141Z,21.62
2022-08-16T06:08:54.579Z,21.64
2022-08-16T06:09:53.628Z,21.71
2022-08-16T06:11:02.641Z,21.68
2022-08-16T06:11:54.560Z,21.79
2022-08-16T06:12:56.318Z,21.75
2022-08-16T06:13:55.439Z,21.79
2022-08-16T06:14:54.601Z,21.83
2022-08-16T06:15:53.514Z,21.86
2022-08-16T06:16:53.491Z,21.94
2022-08-16T06:17:53.504Z,21.96
2022-08-16T06:18:53.474Z,21.98
2022-08-16T06:19:53.480Z,22.00
2022-08-16T06:20:56.143Z,22.02
2022-08-16T06:21:55.245Z,21.94
2022-08-16T06:23:02.868Z,22.00
2022-08-16T06:23:57.123Z,22.00
2022-08-16T06:24:56.159Z,22.03
2022-08-16T06:25:53.583Z,22.05
2022-08-16T06:27:02.468Z,22.09
2022-08-16T06:28:01.857Z,22.17
2022-08-16T06:28:54.399Z,22.18
2022-08-16T06:29:53.508Z,22.22
2022-08-16T06:30:53.368Z,22.25
2022-08-16T06:31:54.996Z,22.21
2022-08-16T06:32:55.807Z,22.25
2022-08-16T06:33:58.629Z,22.28
2022-08-16T06:34:53.341Z,22.28
2022-08-16T06:35:55.049Z,22.35
2022-08-16T06:36:59.200Z,22.35
2022-08-16T06:37:54.318Z,22.27
2022-08-16T06:38:56.648Z,22.33
2022-08-16T06:39:53.290Z,22.37
2022-08-16T06:40:53.239Z,22.49
2022-08-16T06:41:53.231Z,22.57
2022-08-16T06:42:57.313Z,22.52
2022-08-16T06:43:53.331Z,22.47
2022-08-16T06:44:53.359Z,22.46
2022-08-16T06:45:53.372Z,22.42
2022-08-16T06:46:53.313Z,22.49
2022-08-16T06:47:57.013Z,22.57
2022-08-16T06:48:53.292Z,22.72
2022-08-16T06:49:54.908Z,22.72
2022-08-16T06:50:53.162Z,22.82
2022-08-16T06:51:53.217Z,22.82
2022-08-16T06:52:59.955Z,22.86
2022-08-16T06:53:54.127Z,22.82
2022-08-16T06:54:53.102Z,22.83
2022-08-16T06:55:53.797Z,22.70
2022-08-16T06:56:54.116Z,22.77
2022-08-16T06:57:57.693Z,22.80
2022-08-16T06:58:53.057Z,22.90
2022-08-16T06:59:58.473Z,22.90
2022-08-16T07:00:56.720Z,22.91
2022-08-16T07:01:55.279Z,23.01
2022-08-16T07:02:53.238Z,23.05
2022-08-16T07:03:55.173Z,23.07
2022-08-16T07:04:52.976Z,23.09
2022-08-16T07:05:52.978Z,23.13
2022-08-16T07:06:52.976Z,23.27
2022-08-16T07:07:54.103Z,23.27
2022-08-16T07:08:52.967Z,23.25
2022-08-16T07:09:52.949Z,23.25
2022-08-16T07:10:52.909Z,23.25
2022-08-16T07:11:52.937Z,23.28
2022-08-16T07:13:04.132Z,23.31
2022-08-16T07:14:03.894Z,23.40
2022-08-16T07:14:57.332Z,23.50
2022-08-16T07:15:53.883Z,23.53
2022-08-16T07:16:54.499Z,23.53
2022-08-16T07:17:55.531Z,23.43
2022-08-16T07:18:59.390Z,23.40
2022-08-16T07:20:03.107Z,23.50
2022-08-16T07:20:54.033Z,23.54
2022-08-16T07:21:59.507Z,23.55
2022-08-16T07:22:59.053Z,23.60
2022-08-16T07:23:56.832Z,23.61
2022-08-16T07:24:56.452Z,23.65
2022-08-16T07:25:52.989Z,23.58
2022-08-16T07:26:52.751Z,23.50
2022-08-16T07:27:52.779Z,23.57
2022-08-16T07:28:52.790Z,23.60
2022-08-16T07:29:55.669Z,23.60
2022-08-16T07:30:54.413Z,23.63
2022-08-16T07:31:54.415Z,23.66
2022-08-16T07:32:59.725Z,23.69
2022-08-16T07:33:56.993Z,23.79
2022-08-16T07:34:54.614Z,23.87
2022-08-16T07:35:54.383Z,23.94
2022-08-16T07:36:58.236Z,24.09
2022-08-16T07:37:55.348Z,24.12
2022-08-16T07:38:53.435Z,24.15
2022-08-16T07:39:52.670Z,24.13
2022-08-16T07:41:01.341Z,24.13
2022-08-16T07:41:56.268Z,24.18
2022-08-16T07:42:52.590Z,24.18
2022-08-16T07:43:52.600Z,24.22
2022-08-16T07:44:52.579Z,24.24
2022-08-16T07:45:55.186Z,24.31
2022-08-16T07:47:07.768Z,24.31
2022-08-16T07:47:52.549Z,24.30
2022-08-16T07:48:52.518Z,24.34
2022-08-16T07:49:58.306Z,24.39
2022-08-16T07:50:58.884Z,24.39
2022-08-16T07:52:02.964Z,24.32
2022-08-16T07:52:54.429Z,24.34
2022-08-16T07:54:02.495Z,24.42
2022-08-16T07:54:55.360Z,24.47
2022-08-16T07:55:56.300Z,24.55
2022-08-16T07:56:53.999Z,24.58
2022-08-16T07:58:00.754Z,24.57
2022-08-16T07:58:55.522Z,24.62
2022-08-16T07:59:52.411Z,24.58
2022-08-16T08:00:52.446Z,24.67
2022-08-16T08:01:52.961Z,24.69
2022-08-16T08:02:52.528Z,24.78
2022-08-16T08:03:52.373Z,24.76
2022-08-16T08:04:55.070Z,24.84
2022-08-16T08:05:52.345Z,24.84
2022-08-16T08:06:53.120Z,24.88
2022-08-16T08:07:52.324Z,24.95
2022-08-16T08:08:57.239Z,24.98
2022-08-16T08:09:53.300Z,25.06
2022-08-16T08:10:52.308Z,25.23
2022-08-16T08:12:00.765Z,25.28
2022-08-16T08:12:59.390Z,25.28
2022-08-16T08:13:52.258Z,25.36
2022-08-16T08:14:53.614Z,25.51
2022-08-16T08:15:52.937Z,25.58
2022-08-16T08:16:54.858Z,25.55
2022-08-16T08:17:52.217Z,25.54
2022-08-16T08:18:56.237Z,25.61
2022-08-16T08:19:53.616Z,25.75
2022-08-16T08:20:59.153Z,25.73
2022-08-16T08:22:00.848Z,25.69
2022-08-16T08:22:53.148Z,25.76
2022-08-16T08:23:53.148Z,25.73
2022-08-16T08:24:53.330Z,25.69
2022-08-16T08:25:55.290Z,25.77
2022-08-16T08:26:52.111Z,25.85
2022-08-16T08:27:52.139Z,25.87
2022-08-16T08:28:53.090Z,25.94
2022-08-16T08:30:49.401Z,25.79
2022-08-16T08:31:00.851Z,25.90
2022-08-16T08:31:53.182Z,25.95
2022-08-16T08:33:00.480Z,25.82
2022-08-16T08:33:53.047Z,25.82
2022-08-16T08:35:06.682Z,25.94
2022-08-16T08:35:52.013Z,26.09
2022-08-16T08:36:54.177Z,26.18
2022-08-16T08:37:55.815Z,26.29
2022-08-16T08:38:51.993Z,26.37
2022-08-16T08:39:54.731Z,26.44
2022-08-16T08:40:51.964Z,26.47
2022-08-16T08:41:55.089Z,26.55
2022-08-16T08:42:51.926Z,26.65
2022-08-16T08:43:52.945Z,26.67
2022-08-16T08:44:51.913Z,26.76
2022-08-16T08:45:54.636Z,26.77
2022-08-16T08:46:59.635Z,26.77
2022-08-16T08:47:54.204Z,26.81
2022-08-16T08:48:59.772Z,26.84
2022-08-16T08:49:55.590Z,26.87
2022-08-16T08:50:54.525Z,26.97
2022-08-16T08:51:51.858Z,26.97
2022-08-16T08:52:54.551Z,26.82
2022-08-16T08:53:57.954Z,26.85
2022-08-16T08:54:52.811Z,26.87
2022-08-16T08:55:58.883Z,26.99
2022-08-16T08:56:56.022Z,26.95
2022-08-16T08:57:51.789Z,27.06
2022-08-16T08:58:54.023Z,27.10
2022-08-16T08:59:55.480Z,27.02
2022-08-16T09:00:51.974Z,27.00
2022-08-16T09:01:57.716Z,27.02
2022-08-16T09:02:54.516Z,27.06
2022-08-16T09:03:51.734Z,27.12
2022-08-16T09:04:52.514Z,27.17
2022-08-16T09:05:54.361Z,27.25
2022-08-16T09:06:51.702Z,27.31
2022-08-16T09:08:00.237Z,27.19
2022-08-16T09:08:54.384Z,27.14
2022-08-16T09:10:06.375Z,27.06
2022-08-16T09:11:01.928Z,27.17
2022-08-16T09:12:04.183Z,27.32
2022-08-16T09:12:55.993Z,27.34
2022-08-16T09:13:52.634Z,27.43
2022-08-16T09:14:51.663Z,27.50
2022-08-16T09:15:51.613Z,27.67
2022-08-16T09:17:03.407Z,27.79
2022-08-16T09:17:53.615Z,27.74
2022-08-16T09:18:56.860Z,27.66
2022-08-16T09:19:55.606Z,27.59
2022-08-16T09:20:58.665Z,27.62
2022-08-16T09:21:56.158Z,27.65
2022-08-16T09:22:52.779Z,27.70
2022-08-16T09:23:54.159Z,27.70
2022-08-16T09:24:58.136Z,27.60
2022-08-16T09:25:53.279Z,27.63
2022-08-16T09:26:52.596Z,27.47
2022-08-16T09:27:56.759Z,27.54
2022-08-16T09:29:14.698Z,27.66
2022-08-16T09:30:00.353Z,27.79
2022-08-16T09:30:59.833Z,27.90
2022-08-16T09:31:55.835Z,27.97
2022-08-16T09:32:54.093Z,28.09
2022-08-16T09:35:06.707Z,28.39
2022-08-16T09:36:11.903Z,28.43
2022-08-16T09:37:18.064Z,28.44
2022-08-16T09:38:08.684Z,28.44
2022-08-16T09:39:02.989Z,28.46
2022-08-16T09:40:32.929Z,28.44
2022-08-16T09:41:04.079Z,28.43
2022-08-16T09:42:02.965Z,28.37
2022-08-16T09:43:06.292Z,28.37
2022-08-16T09:45:07.926Z,28.22
2022-08-16T09:45:12.740Z,28.27
2022-08-16T09:46:48.902Z,28.46
2022-08-16T09:47:03.867Z,28.59
2022-08-16T09:48:03.864Z,28.73
2022-08-16T09:49:03.816Z,28.81
2022-08-16T09:50:02.858Z,28.78
2022-08-16T09:51:03.851Z,28.78
2022-08-16T09:52:02.825Z,28.74
2022-08-16T09:53:02.787Z,28.70
2022-08-16T09:54:02.815Z,28.78
2022-08-16T09:55:02.787Z,28.86
2022-08-16T09:56:02.788Z,28.89
2022-08-16T09:57:03.759Z,29.05
2022-08-16T09:58:02.770Z,29.11
2022-08-16T09:59:05.195Z,29.11
2022-08-16T10:00:03.740Z,29.02
2022-08-16T10:01:03.719Z,29.12
2022-08-16T10:02:26.302Z,29.11
2022-08-16T10:03:03.743Z,28.96
2022-08-16T10:04:05.240Z,29.08
2022-08-16T10:05:03.748Z,28.98
2022-08-16T10:06:02.693Z,28.95
2022-08-16T10:07:03.125Z,29.04
2022-08-16T10:08:25.387Z,28.92
2022-08-16T10:09:05.658Z,29.00
2022-08-16T10:10:02.619Z,28.86
2022-08-16T10:11:02.654Z,28.90
2022-08-16T10:12:11.629Z,28.86
2022-08-16T10:13:03.597Z,28.89
2022-08-16T10:14:02.574Z,28.88
2022-08-16T10:15:02.613Z,28.98
2022-08-16T10:16:02.617Z,29.26
2022-08-16T10:17:02.691Z,29.28
2022-08-16T10:18:02.708Z,29.34
2022-08-16T10:19:06.968Z,29.31
2022-08-16T10:20:02.544Z,29.48
2022-08-16T10:21:02.509Z,29.57
2022-08-16T10:22:04.673Z,29.64
2022-08-16T10:23:07.140Z,29.53
2022-08-16T10:24:03.482Z,29.79
2022-08-16T10:25:02.553Z,29.94
2022-08-16T10:27:00.649Z,29.94
2022-08-16T10:27:25.740Z,29.78
2022-08-16T10:28:28.049Z,29.67
2022-08-16T10:29:04.760Z,29.67
2022-08-16T10:30:07.191Z,29.74
2022-08-16T10:31:04.416Z,29.82
2022-08-16T10:32:03.466Z,30.07
2022-08-16T10:33:03.217Z,30.11
2022-08-16T10:34:05.812Z,30.10
2022-08-16T10:35:07.343Z,30.11
2022-08-16T10:36:04.155Z,30.16
2022-08-16T10:37:03.152Z,29.97
2022-08-16T10:38:02.325Z,29.94
2022-08-16T10:39:02.334Z,30.13
2022-08-16T10:40:02.381Z,30.22
2022-08-16T10:41:03.045Z,30.51
2022-08-16T10:42:06.961Z,30.64
2022-08-16T10:43:08.213Z,30.54
2022-08-16T10:44:09.554Z,30.61
2022-08-16T10:45:03.106Z,30.58
2022-08-16T10:46:02.277Z,30.51
2022-08-16T10:47:05.911Z,30.35
2022-08-16T10:48:03.635Z,30.23
2022-08-16T10:49:05.274Z,30.17
2022-08-16T10:50:02.260Z,30.26
2022-08-16T10:51:02.197Z,30.49
2022-08-16T10:52:19.123Z,30.79
2022-08-16T10:53:05.889Z,31.04
2022-08-16T10:54:04.990Z,31.13
2022-08-16T10:56:03.194Z,31.26
2022-08-16T10:57:04.252Z,30.72
2022-08-16T10:58:09.222Z,30.60
2022-08-16T11:00:05.804Z,30.69
2022-08-16T11:03:02.119Z,31.46
2022-08-16T11:05:04.854Z,31.29
2022-08-16T11:05:06.331Z,30.86
2022-08-16T11:06:03.140Z,30.49
2022-08-16T11:07:07.873Z,30.55
2022-08-16T11:08:05.323Z,30.69
2022-08-16T11:11:05.068Z,31.43
2022-08-16T11:11:06.851Z,31.68
2022-08-16T11:12:13.493Z,31.70
2022-08-16T11:14:11.476Z,31.96
2022-08-16T11:15:13.345Z,31.76
2022-08-16T11:17:10.953Z,31.19
2022-08-16T11:19:03.130Z,30.89
2022-08-16T11:19:12.390Z,30.91
2022-08-16T11:21:03.686Z,31.53
2022-08-16T11:22:38.968Z,31.63
2022-08-16T11:23:04.339Z,32.06
2022-08-16T11:24:03.429Z,31.89
2022-08-16T11:26:16.519Z,31.88
2022-08-16T11:27:19.694Z,32.18
2022-08-16T11:28:05.471Z,32.25
2022-08-16T11:29:17.026Z,32.32
2022-08-16T11:30:02.858Z,32.37
2022-08-16T11:31:02.803Z,32.01
2022-08-16T11:32:04.501Z,32.15
2022-08-16T11:33:01.771Z,32.40
2022-08-16T11:34:01.756Z,32.32
2022-08-16T11:35:10.200Z,32.47
2022-08-16T11:37:02.731Z,32.33
2022-08-16T11:38:24.055Z,31.96
2022-08-16T11:39:02.947Z,30.95
2022-08-16T11:40:01.889Z,30.73
2022-08-16T11:41:01.774Z,30.75
2022-08-16T11:42:02.591Z,30.83
2022-08-16T11:43:04.537Z,30.83
2022-08-16T11:44:01.650Z,31.19
2022-08-16T11:45:01.667Z,31.26
2022-08-16T11:46:43.214Z,31.21
2022-08-16T12:26:22.707Z,34.43
2022-08-16T12:26:59.919Z,33.72
2022-08-16T12:37:41.442Z,31.43
2022-08-16T12:39:03.743Z,31.50
2022-08-16T12:43:14.290Z,31.68
2022-08-16T12:46:59.016Z,31.70
2022-08-16T12:55:17.232Z,34.19
2022-08-16T12:58:48.912Z,35.50
2022-08-16T12:59:35.349Z,35.10
2022-08-16T13:00:26.980Z,35.71
2022-08-16T13:02:33.412Z,35.18
2022-08-16T13:04:08.373Z,34.40
2022-08-16T13:04:25.799Z,34.72
2022-08-16T13:05:27.767Z,34.88
2022-08-16T13:08:00.477Z,35.02
2022-08-16T13:17:23.869Z,37.88
2022-08-16T13:41:54.080Z,37.89
2022-08-16T13:46:08.626Z,37.82
2022-08-16T13:47:21.863Z,38.07
2022-08-16T13:55:23.321Z,38.86
2022-08-16T14:00:23.104Z,39.18
2022-08-16T14:01:02.027Z,39.63
2022-08-16T14:06:01.493Z,38.69
2022-08-16T14:08:11.640Z,39.59
2022-08-16T14:08:50.420Z,38.32
2022-08-16T14:16:24.163Z,39.62
2022-08-16T14:16:59.016Z,39.28
2022-08-16T14:29:01.277Z,38.28
2022-08-16T14:30:01.330Z,38.07
2022-08-16T14:34:58.370Z,39.10
2022-08-16T14:46:43.965Z,37.55
2022-08-16T14:52:38.000Z,34.87
2022-08-16T14:56:06.877Z,34.88
2022-08-16T15:02:48.875Z,34.64
2022-08-16T15:07:22.920Z,34.94
2022-08-16T15:08:43.923Z,35.10
2022-08-16T15:09:22.574Z,35.06
2022-08-16T15:13:18.793Z,35.60
2022-08-16T15:13:46.842Z,35.56
2022-08-16T15:27:14.774Z,36.27
2022-08-16T15:37:42.852Z,35.82
2022-08-16T15:38:57.529Z,35.45
2022-08-16T17:10:46.258Z,37.55
2022-08-16T17:32:44.316Z,33.38
2022-08-16T17:36:54.457Z,33.21
2022-08-16T18:03:07.529Z,31.61
2022-08-16T18:18:59.361Z,31.06
2022-08-16T19:00:56.280Z,29.80
2022-08-16T19:31:48.894Z,28.89
2022-08-16T19:41:07.495Z,28.74
2022-08-16T19:43:18.367Z,28.76
2022-08-16T19:56:49.033Z,28.34
2022-08-16T20:09:46.300Z,28.25
2022-08-16T20:23:39.380Z,28.04
2022-08-16T20:39:04.860Z,28.09
2022-08-16T20:43:37.200Z,27.85
2022-08-16T21:01:59.414Z,27.43
2022-08-16T21:28:40.070Z,27.49
2022-08-16T21:47:27.629Z,26.54
2022-08-16T22:00:13.844Z,26.73
2022-08-16T22:38:56.639Z,26.18
2022-08-16T22:40:46.468Z,26.12
2022-08-16T22:41:40.068Z,26.15
2022-08-16T22:45:23.749Z,25.92
2022-08-16T22:50:46.682Z,25.88
2022-08-16T22:57:00.655Z,25.87
2022-08-16T23:08:38.149Z,25.60
2022-08-16T23:24:57.002Z,25.90
2022-08-16T23:25:29.823Z,25.87
2022-08-16T23:26:44.976Z,25.82
2022-08-16T23:42:14.445Z,25.79
2022-08-16T23:45:43.548Z,25.88
2022-08-16T23:57:56.390Z,25.51
